sensor_id;sensor_type;location;lat;lon;timestamp;P1;durP1;ratioP1;P2;durP2;ratioP2
38425;SDS011;24210;51.460;6.148;2022-08-05T00:00:05;3.90;;;2.83;;
38425;SDS011;24210;51.460;6.148;2022-08-05T00:02:31;5.47;;;2.92;;
38425;SDS011;24210;51.460;6.148;2022-08-05T00:04:56;6.57;;;2.73;;
38425;SDS011;24210;51.460;6.148;2022-08-05T00:07:21;4.67;;;2.63;;
38425;SDS011;24210;51.460;6.148;2022-08-05T00:09:47;3.25;;;2.80;;
38425;SDS011;24210;51.460;6.148;2022-08-05T00:12:12;5.53;;;2.53;;
38425;SDS011;24210;51.460;6.148;2022-08-05T00:14:37;7.17;;;4.00;;
38425;SDS011;24210;51.460;6.148;2022-08-05T00:17:03;7.63;;;4.23;;
38425;SDS011;24210;51.460;6.148;2022-08-05T00:19:28;3.87;;;3.10;;
38425;SDS011;24210;51.460;6.148;2022-08-05T00:21:53;3.80;;;2.93;;
38425;SDS011;24210;51.460;6.148;2022-08-05T00:24:18;4.20;;;3.53;;
38425;SDS011;24210;51.460;6.148;2022-08-05T00:26:44;4.20;;;3.30;;
38425;SDS011;24210;51.460;6.148;2022-08-05T00:29:09;6.23;;;3.50;;
38425;SDS011;24210;51.460;6.148;2022-08-05T00:31:34;8.47;;;3.37;;
38425;SDS011;24210;51.460;6.148;2022-08-05T00:34:00;6.27;;;3.43;;
38425;SDS011;24210;51.460;6.148;2022-08-05T00:36:25;5.37;;;3.50;;
38425;SDS011;24210;51.460;6.148;2022-08-05T00:38:50;4.27;;;3.83;;
38425;SDS011;24210;51.460;6.148;2022-08-05T00:41:25;4.63;;;3.77;;
38425;SDS011;24210;51.460;6.148;2022-08-05T00:43:50;6.15;;;3.45;;
38425;SDS011;24210;51.460;6.148;2022-08-05T00:46:16;3.67;;;3.37;;
38425;SDS011;24210;51.460;6.148;2022-08-05T00:48:41;5.17;;;3.80;;
38425;SDS011;24210;51.460;6.148;2022-08-05T00:51:06;4.03;;;3.73;;
38425;SDS011;24210;51.460;6.148;2022-08-05T00:53:31;5.00;;;3.50;;
38425;SDS011;24210;51.460;6.148;2022-08-05T00:55:56;6.90;;;3.67;;
38425;SDS011;24210;51.460;6.148;2022-08-05T00:58:22;5.57;;;3.33;;
38425;SDS011;24210;51.460;6.148;2022-08-05T01:00:47;5.70;;;3.83;;
38425;SDS011;24210;51.460;6.148;2022-08-05T01:03:12;5.23;;;4.20;;
38425;SDS011;24210;51.460;6.148;2022-08-05T01:05:38;5.27;;;3.37;;
38425;SDS011;24210;51.460;6.148;2022-08-05T01:08:03;4.83;;;3.80;;
38425;SDS011;24210;51.460;6.148;2022-08-05T01:13:18;6.10;;;4.40;;
38425;SDS011;24210;51.460;6.148;2022-08-05T01:15:49;8.48;;;3.88;;
38425;SDS011;24210;51.460;6.148;2022-08-05T01:18:19;5.68;;;4.28;;
38425;SDS011;24210;51.460;6.148;2022-08-05T01:28:42;7.05;;;4.90;;
38425;SDS011;24210;51.460;6.148;2022-08-05T01:33:55;4.75;;;4.22;;
38425;SDS011;24210;51.460;6.148;2022-08-05T01:36:24;6.55;;;4.43;;
38425;SDS011;24210;51.460;6.148;2022-08-05T01:38:50;4.78;;;4.07;;
38425;SDS011;24210;51.460;6.148;2022-08-05T01:41:16;5.10;;;4.27;;
38425;SDS011;24210;51.460;6.148;2022-08-05T01:43:42;6.00;;;3.88;;
38425;SDS011;24210;51.460;6.148;2022-08-05T01:46:08;6.68;;;4.30;;
38425;SDS011;24210;51.460;6.148;2022-08-05T01:48:34;5.90;;;4.30;;
38425;SDS011;24210;51.460;6.148;2022-08-05T01:53:25;5.00;;;4.55;;
38425;SDS011;24210;51.460;6.148;2022-08-05T01:55:51;6.03;;;3.97;;
38425;SDS011;24210;51.460;6.148;2022-08-05T01:58:17;6.50;;;4.40;;
38425;SDS011;24210;51.460;6.148;2022-08-05T02:00:44;5.32;;;4.53;;
38425;SDS011;24210;51.460;6.148;2022-08-05T02:03:26;10.65;;;5.75;;
38425;SDS011;24210;51.460;6.148;2022-08-05T02:05:52;6.57;;;4.68;;
38425;SDS011;24210;51.460;6.148;2022-08-05T02:08:18;5.30;;;4.17;;
38425;SDS011;24210;51.460;6.148;2022-08-05T02:10:47;7.60;;;5.20;;
38425;SDS011;24210;51.460;6.148;2022-08-05T02:13:14;8.18;;;5.55;;
38425;SDS011;24210;51.460;6.148;2022-08-05T02:15:40;6.00;;;4.88;;
38425;SDS011;24210;51.460;6.148;2022-08-05T02:18:13;6.53;;;4.93;;
38425;SDS011;24210;51.460;6.148;2022-08-05T02:20:45;9.25;;;6.53;;
38425;SDS011;24210;51.460;6.148;2022-08-05T02:23:11;8.93;;;5.68;;
38425;SDS011;24210;51.460;6.148;2022-08-05T02:25:37;8.65;;;5.63;;
38425;SDS011;24210;51.460;6.148;2022-08-05T02:28:04;7.15;;;5.30;;
38425;SDS011;24210;51.460;6.148;2022-08-05T02:30:36;7.40;;;4.75;;
38425;SDS011;24210;51.460;6.148;2022-08-05T02:33:02;6.72;;;4.88;;
38425;SDS011;24210;51.460;6.148;2022-08-05T02:35:28;5.85;;;5.07;;
38425;SDS011;24210;51.460;6.148;2022-08-05T02:37:55;6.05;;;4.88;;
38425;SDS011;24210;51.460;6.148;2022-08-05T02:40:21;7.20;;;4.93;;
38425;SDS011;24210;51.460;6.148;2022-08-05T02:42:47;12.35;;;6.97;;
38425;SDS011;24210;51.460;6.148;2022-08-05T02:45:13;5.38;;;4.90;;
38425;SDS011;24210;51.460;6.148;2022-08-05T02:47:39;8.05;;;5.22;;
38425;SDS011;24210;51.460;6.148;2022-08-05T02:50:05;9.43;;;6.43;;
38425;SDS011;24210;51.460;6.148;2022-08-05T02:54:57;12.98;;;5.57;;
38425;SDS011;24210;51.460;6.148;2022-08-05T02:57:23;8.10;;;5.97;;
38425;SDS011;24210;51.460;6.148;2022-08-05T02:59:49;6.40;;;5.90;;
38425;SDS011;24210;51.460;6.148;2022-08-05T03:02:16;9.68;;;5.82;;
38425;SDS011;24210;51.460;6.148;2022-08-05T03:04:43;7.47;;;5.13;;
38425;SDS011;24210;51.460;6.148;2022-08-05T03:07:09;7.18;;;6.47;;
38425;SDS011;24210;51.460;6.148;2022-08-05T03:09:34;6.93;;;5.67;;
38425;SDS011;24210;51.460;6.148;2022-08-05T03:12:00;8.13;;;6.20;;
38425;SDS011;24210;51.460;6.148;2022-08-05T03:14:25;10.17;;;6.83;;
38425;SDS011;24210;51.460;6.148;2022-08-05T03:16:50;7.63;;;6.70;;
38425;SDS011;24210;51.460;6.148;2022-08-05T03:19:16;7.10;;;6.40;;
38425;SDS011;24210;51.460;6.148;2022-08-05T03:21:41;10.57;;;6.50;;
38425;SDS011;24210;51.460;6.148;2022-08-05T03:24:06;14.20;;;6.87;;
38425;SDS011;24210;51.460;6.148;2022-08-05T03:28:58;8.85;;;6.88;;
38425;SDS011;24210;51.460;6.148;2022-08-05T03:31:23;8.77;;;6.50;;
38425;SDS011;24210;51.460;6.148;2022-08-05T03:33:49;8.50;;;6.97;;
38425;SDS011;24210;51.460;6.148;2022-08-05T03:36:15;6.03;;;5.53;;
38425;SDS011;24210;51.460;6.148;2022-08-05T03:38:40;7.27;;;6.40;;
38425;SDS011;24210;51.460;6.148;2022-08-05T03:41:06;8.60;;;6.45;;
38425;SDS011;24210;51.460;6.148;2022-08-05T03:43:32;7.50;;;6.17;;
38425;SDS011;24210;51.460;6.148;2022-08-05T03:45:57;9.03;;;6.97;;
38425;SDS011;24210;51.460;6.148;2022-08-05T03:48:22;7.87;;;6.43;;
38425;SDS011;24210;51.460;6.148;2022-08-05T03:50:52;7.73;;;6.90;;
38425;SDS011;24210;51.460;6.148;2022-08-05T03:53:20;8.65;;;7.43;;
38425;SDS011;24210;51.460;6.148;2022-08-05T03:55:51;6.70;;;6.10;;
38425;SDS011;24210;51.460;6.148;2022-08-05T03:58:17;9.73;;;6.82;;
38425;SDS011;24210;51.460;6.148;2022-08-05T04:00:45;8.25;;;7.38;;
38425;SDS011;24210;51.460;6.148;2022-08-05T04:03:11;8.82;;;7.65;;
38425;SDS011;24210;51.460;6.148;2022-08-05T04:05:37;7.47;;;6.80;;
38425;SDS011;24210;51.460;6.148;2022-08-05T04:08:03;9.43;;;8.03;;
38425;SDS011;24210;51.460;6.148;2022-08-05T04:10:29;12.98;;;8.30;;
38425;SDS011;24210;51.460;6.148;2022-08-05T04:12:55;8.73;;;6.30;;
38425;SDS011;24210;51.460;6.148;2022-08-05T04:15:21;6.63;;;6.03;;
38425;SDS011;24210;51.460;6.148;2022-08-05T04:17:46;7.97;;;6.77;;
38425;SDS011;24210;51.460;6.148;2022-08-05T04:20:18;7.60;;;5.53;;
38425;SDS011;24210;51.460;6.148;2022-08-05T04:22:44;7.63;;;6.57;;
38425;SDS011;24210;51.460;6.148;2022-08-05T04:25:09;9.47;;;5.20;;
38425;SDS011;24210;51.460;6.148;2022-08-05T04:27:35;11.00;;;5.43;;
38425;SDS011;24210;51.460;6.148;2022-08-05T04:30:00;9.20;;;5.35;;
38425;SDS011;24210;51.460;6.148;2022-08-05T04:32:26;7.70;;;5.70;;
38425;SDS011;24210;51.460;6.148;2022-08-05T04:34:51;8.73;;;5.13;;
38425;SDS011;24210;51.460;6.148;2022-08-05T04:37:16;9.73;;;4.63;;
38425;SDS011;24210;51.460;6.148;2022-08-05T04:39:41;8.33;;;4.90;;
38425;SDS011;24210;51.460;6.148;2022-08-05T04:42:07;7.97;;;4.97;;
38425;SDS011;24210;51.460;6.148;2022-08-05T04:44:32;5.27;;;3.97;;
38425;SDS011;24210;51.460;6.148;2022-08-05T04:46:57;6.33;;;3.63;;
38425;SDS011;24210;51.460;6.148;2022-08-05T04:49:23;5.27;;;3.70;;
38425;SDS011;24210;51.460;6.148;2022-08-05T04:51:48;5.33;;;2.87;;
38425;SDS011;24210;51.460;6.148;2022-08-05T04:54:13;7.27;;;3.87;;
38425;SDS011;24210;51.460;6.148;2022-08-05T04:56:38;5.13;;;3.07;;
38425;SDS011;24210;51.460;6.148;2022-08-05T04:59:04;6.27;;;2.90;;
38425;SDS011;24210;51.460;6.148;2022-08-05T05:01:29;5.43;;;2.40;;
38425;SDS011;24210;51.460;6.148;2022-08-05T05:03:54;7.63;;;3.07;;
38425;SDS011;24210;51.460;6.148;2022-08-05T05:06:19;6.93;;;3.53;;
38425;SDS011;24210;51.460;6.148;2022-08-05T05:08:44;6.63;;;3.63;;
38425;SDS011;24210;51.460;6.148;2022-08-05T05:11:10;6.63;;;4.80;;
38425;SDS011;24210;51.460;6.148;2022-08-05T05:13:35;8.33;;;3.47;;
38425;SDS011;24210;51.460;6.148;2022-08-05T05:16:00;4.43;;;3.73;;
38425;SDS011;24210;51.460;6.148;2022-08-05T05:18:25;7.63;;;3.87;;
38425;SDS011;24210;51.460;6.148;2022-08-05T05:20:50;4.97;;;3.90;;
38425;SDS011;24210;51.460;6.148;2022-08-05T05:23:16;9.50;;;4.63;;
38425;SDS011;24210;51.460;6.148;2022-08-05T05:25:41;7.90;;;3.47;;
38425;SDS011;24210;51.460;6.148;2022-08-05T05:28:10;11.43;;;4.03;;
38425;SDS011;24210;51.460;6.148;2022-08-05T05:30:36;4.22;;;3.30;;
38425;SDS011;24210;51.460;6.148;2022-08-05T05:33:02;4.80;;;3.67;;
38425;SDS011;24210;51.460;6.148;2022-08-05T05:35:28;7.05;;;3.88;;
38425;SDS011;24210;51.460;6.148;2022-08-05T05:37:54;8.30;;;4.00;;
38425;SDS011;24210;51.460;6.148;2022-08-05T05:40:20;5.78;;;3.03;;
38425;SDS011;24210;51.460;6.148;2022-08-05T05:42:46;8.27;;;3.50;;
38425;SDS011;24210;51.460;6.148;2022-08-05T05:45:11;11.43;;;4.57;;
38425;SDS011;24210;51.460;6.148;2022-08-05T05:47:37;11.03;;;3.60;;
38425;SDS011;24210;51.460;6.148;2022-08-05T05:50:02;5.00;;;3.30;;
38425;SDS011;24210;51.460;6.148;2022-08-05T05:52:27;5.37;;;2.93;;
38425;SDS011;24210;51.460;6.148;2022-08-05T05:54:53;6.33;;;3.40;;
38425;SDS011;24210;51.460;6.148;2022-08-05T05:57:18;10.37;;;4.70;;
38425;SDS011;24210;51.460;6.148;2022-08-05T05:59:44;5.77;;;2.40;;
38425;SDS011;24210;51.460;6.148;2022-08-05T06:02:09;12.23;;;3.50;;
38425;SDS011;24210;51.460;6.148;2022-08-05T06:04:34;5.17;;;2.63;;
38425;SDS011;24210;51.460;6.148;2022-08-05T06:07:00;6.47;;;3.00;;
38425;SDS011;24210;51.460;6.148;2022-08-05T06:09:25;5.60;;;2.30;;
38425;SDS011;24210;51.460;6.148;2022-08-05T06:11:50;7.23;;;2.90;;
38425;SDS011;24210;51.460;6.148;2022-08-05T06:14:15;4.97;;;2.97;;
38425;SDS011;24210;51.460;6.148;2022-08-05T06:16:40;5.93;;;2.10;;
38425;SDS011;24210;51.460;6.148;2022-08-05T06:19:06;6.20;;;3.67;;
38425;SDS011;24210;51.460;6.148;2022-08-05T06:21:31;6.63;;;2.57;;
38425;SDS011;24210;51.460;6.148;2022-08-05T06:23:57;4.20;;;1.83;;
38425;SDS011;24210;51.460;6.148;2022-08-05T06:26:22;7.23;;;2.87;;
38425;SDS011;24210;51.460;6.148;2022-08-05T06:28:47;4.93;;;2.67;;
38425;SDS011;24210;51.460;6.148;2022-08-05T06:31:12;5.83;;;3.27;;
38425;SDS011;24210;51.460;6.148;2022-08-05T06:33:37;7.67;;;3.30;;
38425;SDS011;24210;51.460;6.148;2022-08-05T06:36:03;9.50;;;3.33;;
38425;SDS011;24210;51.460;6.148;2022-08-05T06:38:28;8.97;;;3.17;;
38425;SDS011;24210;51.460;6.148;2022-08-05T06:40:53;4.43;;;3.13;;
38425;SDS011;24210;51.460;6.148;2022-08-05T06:43:18;6.67;;;3.77;;
38425;SDS011;24210;51.460;6.148;2022-08-05T06:45:44;7.90;;;3.27;;
38425;SDS011;24210;51.460;6.148;2022-08-05T06:48:09;7.50;;;3.43;;
38425;SDS011;24210;51.460;6.148;2022-08-05T06:50:34;7.37;;;3.17;;
38425;SDS011;24210;51.460;6.148;2022-08-05T06:52:59;6.33;;;3.13;;
38425;SDS011;24210;51.460;6.148;2022-08-05T06:55:25;4.57;;;2.65;;
38425;SDS011;24210;51.460;6.148;2022-08-05T06:57:50;4.57;;;3.00;;
38425;SDS011;24210;51.460;6.148;2022-08-05T07:00:16;4.90;;;3.23;;
38425;SDS011;24210;51.460;6.148;2022-08-05T07:02:43;5.72;;;2.97;;
38425;SDS011;24210;51.460;6.148;2022-08-05T07:05:08;7.85;;;3.25;;
38425;SDS011;24210;51.460;6.148;2022-08-05T07:07:34;5.43;;;2.63;;
38425;SDS011;24210;51.460;6.148;2022-08-05T07:09:59;2.10;;;1.57;;
38425;SDS011;24210;51.460;6.148;2022-08-05T07:12:24;5.20;;;2.47;;
38425;SDS011;24210;51.460;6.148;2022-08-05T07:15:08;7.68;;;2.45;;
38425;SDS011;24210;51.460;6.148;2022-08-05T07:17:52;4.95;;;2.05;;
38425;SDS011;24210;51.460;6.148;2022-08-05T07:20:17;3.90;;;1.90;;
38425;SDS011;24210;51.460;6.148;2022-08-05T07:22:43;3.47;;;2.40;;
38425;SDS011;24210;51.460;6.148;2022-08-05T07:25:08;4.20;;;1.57;;
38425;SDS011;24210;51.460;6.148;2022-08-05T07:27:33;3.43;;;2.00;;
38425;SDS011;24210;51.460;6.148;2022-08-05T07:29:59;2.50;;;1.70;;
38425;SDS011;24210;51.460;6.148;2022-08-05T07:32:24;6.10;;;1.67;;
38425;SDS011;24210;51.460;6.148;2022-08-05T07:34:49;2.33;;;2.00;;
38425;SDS011;24210;51.460;6.148;2022-08-05T07:37:14;4.10;;;2.17;;
38425;SDS011;24210;51.460;6.148;2022-08-05T07:39:39;4.77;;;2.63;;
38425;SDS011;24210;51.460;6.148;2022-08-05T07:42:05;4.77;;;2.50;;
38425;SDS011;24210;51.460;6.148;2022-08-05T07:44:30;4.10;;;2.20;;
38425;SDS011;24210;51.460;6.148;2022-08-05T07:46:55;6.47;;;2.10;;
38425;SDS011;24210;51.460;6.148;2022-08-05T07:49:20;5.07;;;2.50;;
38425;SDS011;24210;51.460;6.148;2022-08-05T07:51:46;3.90;;;1.87;;
38425;SDS011;24210;51.460;6.148;2022-08-05T07:54:11;4.90;;;2.23;;
38425;SDS011;24210;51.460;6.148;2022-08-05T07:56:37;3.37;;;1.87;;
38425;SDS011;24210;51.460;6.148;2022-08-05T07:59:02;3.90;;;2.00;;
38425;SDS011;24210;51.460;6.148;2022-08-05T08:01:27;3.50;;;1.70;;
38425;SDS011;24210;51.460;6.148;2022-08-05T08:03:52;3.73;;;1.57;;
38425;SDS011;24210;51.460;6.148;2022-08-05T08:06:18;4.43;;;1.93;;
38425;SDS011;24210;51.460;6.148;2022-08-05T08:08:43;9.13;;;3.20;;
38425;SDS011;24210;51.460;6.148;2022-08-05T08:11:08;5.10;;;2.23;;
38425;SDS011;24210;51.460;6.148;2022-08-05T08:13:33;8.47;;;1.97;;
38425;SDS011;24210;51.460;6.148;2022-08-05T08:15:59;4.17;;;2.30;;
38425;SDS011;24210;51.460;6.148;2022-08-05T08:18:24;4.13;;;2.30;;
38425;SDS011;24210;51.460;6.148;2022-08-05T08:20:49;3.20;;;1.90;;
38425;SDS011;24210;51.460;6.148;2022-08-05T08:23:15;4.60;;;2.55;;
38425;SDS011;24210;51.460;6.148;2022-08-05T08:25:42;4.53;;;1.75;;
38425;SDS011;24210;51.460;6.148;2022-08-05T08:28:07;5.07;;;2.10;;
38425;SDS011;24210;51.460;6.148;2022-08-05T08:30:32;4.07;;;2.17;;
38425;SDS011;24210;51.460;6.148;2022-08-05T08:32:58;4.77;;;1.87;;
38425;SDS011;24210;51.460;6.148;2022-08-05T08:35:23;4.70;;;1.80;;
38425;SDS011;24210;51.460;6.148;2022-08-05T08:37:48;5.90;;;2.33;;
38425;SDS011;24210;51.460;6.148;2022-08-05T08:40:13;1.93;;;1.73;;
38425;SDS011;24210;51.460;6.148;2022-08-05T08:42:39;4.57;;;2.27;;
38425;SDS011;24210;51.460;6.148;2022-08-05T08:45:04;5.72;;;2.42;;
38425;SDS011;24210;51.460;6.148;2022-08-05T08:47:31;5.80;;;2.53;;
38425;SDS011;24210;51.460;6.148;2022-08-05T08:49:57;6.10;;;3.13;;
38425;SDS011;24210;51.460;6.148;2022-08-05T08:52:23;4.43;;;3.70;;
38425;SDS011;24210;51.460;6.148;2022-08-05T08:54:50;4.90;;;3.25;;
38425;SDS011;24210;51.460;6.148;2022-08-05T08:57:16;4.97;;;3.50;;
38425;SDS011;24210;51.460;6.148;2022-08-05T08:59:41;7.07;;;3.63;;
38425;SDS011;24210;51.460;6.148;2022-08-05T09:02:06;9.67;;;4.63;;
38425;SDS011;24210;51.460;6.148;2022-08-05T09:04:33;9.93;;;4.50;;
38425;SDS011;24210;51.460;6.148;2022-08-05T09:07:00;7.60;;;4.93;;
38425;SDS011;24210;51.460;6.148;2022-08-05T09:09:25;6.20;;;4.40;;
38425;SDS011;24210;51.460;6.148;2022-08-05T09:11:51;6.60;;;5.30;;
38425;SDS011;24210;51.460;6.148;2022-08-05T09:14:16;7.73;;;6.17;;
38425;SDS011;24210;51.460;6.148;2022-08-05T09:16:41;6.83;;;4.97;;
38425;SDS011;24210;51.460;6.148;2022-08-05T09:19:07;6.57;;;5.00;;
38425;SDS011;24210;51.460;6.148;2022-08-05T09:21:33;7.25;;;5.80;;
38425;SDS011;24210;51.460;6.148;2022-08-05T09:24:02;9.53;;;6.00;;
38425;SDS011;24210;51.460;6.148;2022-08-05T09:26:28;8.68;;;5.45;;
38425;SDS011;24210;51.460;6.148;2022-08-05T09:28:54;6.77;;;5.60;;
38425;SDS011;24210;51.460;6.148;2022-08-05T09:31:23;7.93;;;5.57;;
38425;SDS011;24210;51.460;6.148;2022-08-05T09:33:55;10.40;;;5.87;;
38425;SDS011;24210;51.460;6.148;2022-08-05T09:36:22;8.65;;;6.38;;
38425;SDS011;24210;51.460;6.148;2022-08-05T09:38:57;7.30;;;6.23;;
38425;SDS011;24210;51.460;6.148;2022-08-05T09:41:23;9.73;;;6.60;;
38425;SDS011;24210;51.460;6.148;2022-08-05T09:43:48;8.87;;;6.97;;
38425;SDS011;24210;51.460;6.148;2022-08-05T09:46:24;9.57;;;7.43;;
38425;SDS011;24210;51.460;6.148;2022-08-05T09:51:26;10.90;;;6.30;;
38425;SDS011;24210;51.460;6.148;2022-08-05T09:53:54;9.32;;;7.22;;
38425;SDS011;24210;51.460;6.148;2022-08-05T09:56:26;9.67;;;7.10;;
38425;SDS011;24210;51.460;6.148;2022-08-05T09:59:10;10.32;;;7.50;;
38425;SDS011;24210;51.460;6.148;2022-08-05T10:01:36;11.45;;;7.07;;
38425;SDS011;24210;51.460;6.148;2022-08-05T10:06:29;8.60;;;6.10;;
38425;SDS011;24210;51.460;6.148;2022-08-05T10:08:55;8.80;;;6.97;;
38425;SDS011;24210;51.460;6.148;2022-08-05T10:11:33;7.72;;;7.00;;
38425;SDS011;24210;51.460;6.148;2022-08-05T10:13:58;9.00;;;6.70;;
38425;SDS011;24210;51.460;6.148;2022-08-05T10:16:41;9.97;;;7.43;;
38425;SDS011;24210;51.460;6.148;2022-08-05T10:19:07;9.10;;;7.05;;
38425;SDS011;24210;51.460;6.148;2022-08-05T10:21:32;9.57;;;7.15;;
38425;SDS011;24210;51.460;6.148;2022-08-05T10:23:58;12.73;;;8.53;;
38425;SDS011;24210;51.460;6.148;2022-08-05T10:26:23;14.47;;;7.50;;
38425;SDS011;24210;51.460;6.148;2022-08-05T10:28:48;7.70;;;6.87;;
38425;SDS011;24210;51.460;6.148;2022-08-05T10:31:15;9.75;;;7.47;;
38425;SDS011;24210;51.460;6.148;2022-08-05T10:33:40;7.97;;;6.05;;
38425;SDS011;24210;51.460;6.148;2022-08-05T10:36:06;9.87;;;5.80;;
38425;SDS011;24210;51.460;6.148;2022-08-05T10:38:32;11.90;;;8.07;;
38425;SDS011;24210;51.460;6.148;2022-08-05T10:43:42;11.65;;;7.30;;
38425;SDS011;24210;51.460;6.148;2022-08-05T10:46:12;10.40;;;6.25;;
38425;SDS011;24210;51.460;6.148;2022-08-05T10:53:35;6.10;;;5.22;;
38425;SDS011;24210;51.460;6.148;2022-08-05T10:56:02;5.53;;;3.78;;
38425;SDS011;24210;51.460;6.148;2022-08-05T10:58:28;9.45;;;3.63;;
38425;SDS011;24210;51.460;6.148;2022-08-05T11:00:54;4.90;;;3.30;;
38425;SDS011;24210;51.460;6.148;2022-08-05T11:03:19;6.83;;;2.60;;
38425;SDS011;24210;51.460;6.148;2022-08-05T11:06:01;2.63;;;2.50;;
38425;SDS011;24210;51.460;6.148;2022-08-05T11:08:26;4.38;;;2.45;;
38425;SDS011;24210;51.460;6.148;2022-08-05T11:10:52;6.78;;;2.50;;
38425;SDS011;24210;51.460;6.148;2022-08-05T11:16:22;3.90;;;1.80;;
38425;SDS011;24210;51.460;6.148;2022-08-05T11:18:47;2.72;;;1.25;;
38425;SDS011;24210;51.460;6.148;2022-08-05T11:21:32;3.73;;;1.43;;
38425;SDS011;24210;51.460;6.148;2022-08-05T11:24:05;1.17;;;0.90;;
38425;SDS011;24210;51.460;6.148;2022-08-05T11:26:31;2.67;;;1.50;;
38425;SDS011;24210;51.460;6.148;2022-08-05T11:28:56;4.78;;;1.20;;
38425;SDS011;24210;51.460;6.148;2022-08-05T11:31:23;1.60;;;1.17;;
38425;SDS011;24210;51.460;6.148;2022-08-05T11:33:52;3.05;;;1.25;;
38425;SDS011;24210;51.460;6.148;2022-08-05T11:36:37;2.72;;;1.20;;
38425;SDS011;24210;51.460;6.148;2022-08-05T11:39:04;4.32;;;1.17;;
38425;SDS011;24210;51.460;6.148;2022-08-05T11:41:29;3.33;;;1.77;;
38425;SDS011;24210;51.460;6.148;2022-08-05T11:44:00;4.05;;;1.13;;
38425;SDS011;24210;51.460;6.148;2022-08-05T11:48:51;4.93;;;1.47;;
38425;SDS011;24210;51.460;6.148;2022-08-05T11:51:16;5.97;;;1.43;;
38425;SDS011;24210;51.460;6.148;2022-08-05T11:53:42;3.23;;;1.00;;
38425;SDS011;24210;51.460;6.148;2022-08-05T11:56:07;3.90;;;1.63;;
38425;SDS011;24210;51.460;6.148;2022-08-05T11:58:34;2.93;;;1.30;;
38425;SDS011;24210;51.460;6.148;2022-08-05T12:03:24;5.22;;;1.25;;
38425;SDS011;24210;51.460;6.148;2022-08-05T12:05:49;2.97;;;0.97;;
38425;SDS011;24210;51.460;6.148;2022-08-05T12:08:15;1.83;;;1.13;;
38425;SDS011;24210;51.460;6.148;2022-08-05T12:10:40;4.23;;;1.10;;
38425;SDS011;24210;51.460;6.148;2022-08-05T12:13:06;1.20;;;1.10;;
38425;SDS011;24210;51.460;6.148;2022-08-05T12:15:31;3.07;;;0.93;;
38425;SDS011;24210;51.460;6.148;2022-08-05T12:17:57;1.67;;;0.93;;
38425;SDS011;24210;51.460;6.148;2022-08-05T12:20:26;1.73;;;0.80;;
38425;SDS011;24210;51.460;6.148;2022-08-05T12:22:51;2.65;;;1.30;;
38425;SDS011;24210;51.460;6.148;2022-08-05T12:25:31;3.03;;;1.10;;
38425;SDS011;24210;51.460;6.148;2022-08-05T12:27:56;4.07;;;1.00;;
38425;SDS011;24210;51.460;6.148;2022-08-05T12:30:21;2.37;;;1.10;;
38425;SDS011;24210;51.460;6.148;2022-08-05T12:32:47;4.30;;;1.40;;
38425;SDS011;24210;51.460;6.148;2022-08-05T12:35:15;4.95;;;1.38;;
38425;SDS011;24210;51.460;6.148;2022-08-05T12:37:41;3.00;;;0.93;;
38425;SDS011;24210;51.460;6.148;2022-08-05T12:40:09;3.33;;;1.30;;
38425;SDS011;24210;51.460;6.148;2022-08-05T12:42:35;0.73;;;0.60;;
38425;SDS011;24210;51.460;6.148;2022-08-05T12:45:09;1.30;;;0.83;;
38425;SDS011;24210;51.460;6.148;2022-08-05T12:47:35;0.95;;;0.30;;
38425;SDS011;24210;51.460;6.148;2022-08-05T12:50:11;2.00;;;0.43;;
38425;SDS011;24210;51.460;6.148;2022-08-05T12:52:36;3.88;;;0.25;;
38425;SDS011;24210;51.460;6.148;2022-08-05T12:55:14;2.10;;;1.58;;
38425;SDS011;24210;51.460;6.148;2022-08-05T12:57:40;2.75;;;0.75;;
38425;SDS011;24210;51.460;6.148;2022-08-05T13:00:18;0.93;;;0.30;;
38425;SDS011;24210;51.460;6.148;2022-08-05T13:02:43;1.02;;;0.30;;
38425;SDS011;24210;51.460;6.148;2022-08-05T13:05:09;2.30;;;0.40;;
38425;SDS011;24210;51.460;6.148;2022-08-05T13:07:35;2.20;;;0.43;;
38425;SDS011;24210;51.460;6.148;2022-08-05T13:10:03;4.03;;;0.30;;
38425;SDS011;24210;51.460;6.148;2022-08-05T13:12:37;1.02;;;0.30;;
38425;SDS011;24210;51.460;6.148;2022-08-05T13:15:03;2.03;;;0.30;;
38425;SDS011;24210;51.460;6.148;2022-08-05T13:17:29;2.23;;;0.70;;
38425;SDS011;24210;51.460;6.148;2022-08-05T13:20:03;3.30;;;1.02;;
38425;SDS011;24210;51.460;6.148;2022-08-05T13:22:30;2.53;;;0.20;;
38425;SDS011;24210;51.460;6.148;2022-08-05T13:24:56;2.03;;;0.32;;
38425;SDS011;24210;51.460;6.148;2022-08-05T13:27:27;3.60;;;0.40;;
38425;SDS011;24210;51.460;6.148;2022-08-05T13:29:53;3.55;;;0.35;;
38425;SDS011;24210;51.460;6.148;2022-08-05T13:32:18;0.57;;;0.20;;
38425;SDS011;24210;51.460;6.148;2022-08-05T13:34:45;0.20;;;0.15;;
38425;SDS011;24210;51.460;6.148;2022-08-05T13:37:10;3.20;;;0.40;;
38425;SDS011;24210;51.460;6.148;2022-08-05T13:39:35;2.83;;;0.33;;
38425;SDS011;24210;51.460;6.148;2022-08-05T13:42:00;2.07;;;0.27;;
38425;SDS011;24210;51.460;6.148;2022-08-05T13:44:26;0.63;;;0.20;;
38425;SDS011;24210;51.460;6.148;2022-08-05T13:46:51;2.13;;;0.20;;
38425;SDS011;24210;51.460;6.148;2022-08-05T13:49:16;1.00;;;0.20;;
38425;SDS011;24210;51.460;6.148;2022-08-05T13:51:41;2.03;;;1.03;;
38425;SDS011;24210;51.460;6.148;2022-08-05T13:54:10;1.90;;;0.30;;
38425;SDS011;24210;51.460;6.148;2022-08-05T13:56:35;2.13;;;0.30;;
38425;SDS011;24210;51.460;6.148;2022-08-05T13:59:00;5.23;;;0.70;;
38425;SDS011;24210;51.460;6.148;2022-08-05T14:01:25;1.13;;;0.20;;
38425;SDS011;24210;51.460;6.148;2022-08-05T14:03:50;1.23;;;0.43;;
38425;SDS011;24210;51.460;6.148;2022-08-05T14:06:34;1.73;;;0.52;;
38425;SDS011;24210;51.460;6.148;2022-08-05T14:09:00;1.50;;;0.30;;
38425;SDS011;24210;51.460;6.148;2022-08-05T14:11:25;2.00;;;0.23;;
38425;SDS011;24210;51.460;6.148;2022-08-05T14:13:50;1.60;;;0.40;;
38425;SDS011;24210;51.460;6.148;2022-08-05T14:16:16;0.43;;;0.10;;
38425;SDS011;24210;51.460;6.148;2022-08-05T14:18:41;3.10;;;0.30;;
38425;SDS011;24210;51.460;6.148;2022-08-05T14:21:06;2.33;;;0.40;;
38425;SDS011;24210;51.460;6.148;2022-08-05T14:23:31;1.97;;;0.30;;
38425;SDS011;24210;51.460;6.148;2022-08-05T14:25:57;4.83;;;0.40;;
38425;SDS011;24210;51.460;6.148;2022-08-05T14:28:22;1.70;;;0.20;;
38425;SDS011;24210;51.460;6.148;2022-08-05T14:30:47;2.67;;;0.40;;
38425;SDS011;24210;51.460;6.148;2022-08-05T14:33:12;0.73;;;0.30;;
38425;SDS011;24210;51.460;6.148;2022-08-05T14:35:37;2.47;;;0.30;;
38425;SDS011;24210;51.460;6.148;2022-08-05T14:38:03;5.70;;;0.67;;
38425;SDS011;24210;51.460;6.148;2022-08-05T14:40:28;0.50;;;0.30;;
38425;SDS011;24210;51.460;6.148;2022-08-05T14:42:53;0.50;;;0.10;;
38425;SDS011;24210;51.460;6.148;2022-08-05T14:45:18;0.20;;;0.10;;
38425;SDS011;24210;51.460;6.148;2022-08-05T14:47:44;1.73;;;0.40;;
38425;SDS011;24210;51.460;6.148;2022-08-05T14:50:09;1.07;;;0.30;;
38425;SDS011;24210;51.460;6.148;2022-08-05T14:52:34;2.53;;;0.40;;
38425;SDS011;24210;51.460;6.148;2022-08-05T14:54:59;1.87;;;0.60;;
38425;SDS011;24210;51.460;6.148;2022-08-05T14:57:24;1.43;;;0.20;;
38425;SDS011;24210;51.460;6.148;2022-08-05T14:59:51;1.60;;;0.43;;
38425;SDS011;24210;51.460;6.148;2022-08-05T15:02:16;1.23;;;0.20;;
38425;SDS011;24210;51.460;6.148;2022-08-05T15:04:41;1.90;;;0.37;;
38425;SDS011;24210;51.460;6.148;2022-08-05T15:07:07;0.25;;;0.10;;
38425;SDS011;24210;51.460;6.148;2022-08-05T15:09:33;0.30;;;0.23;;
38425;SDS011;24210;51.460;6.148;2022-08-05T15:11:58;0.53;;;0.37;;
38425;SDS011;24210;51.460;6.148;2022-08-05T15:14:23;1.80;;;0.30;;
38425;SDS011;24210;51.460;6.148;2022-08-05T15:16:49;0.47;;;0.10;;
38425;SDS011;24210;51.460;6.148;2022-08-05T15:19:14;4.13;;;0.27;;
38425;SDS011;24210;51.460;6.148;2022-08-05T15:21:39;0.60;;;0.17;;
38425;SDS011;24210;51.460;6.148;2022-08-05T15:24:05;1.13;;;0.10;;